createdAt,value
2023-01-22T00:02:28.559Z,71.60
2023-01-22T00:07:30.946Z,71.20
2023-01-22T00:12:33.189Z,71.10
2023-01-22T00:17:35.397Z,70.60
2023-01-22T00:22:37.597Z,70.10
2023-01-22T00:27:41.802Z,70.00
2023-01-22T00:32:46.470Z,70.00
2023-01-22T00:37:48.780Z,70.00
2023-01-22T00:42:51.027Z,70.20
2023-01-22T00:47:53.267Z,70.80
2023-01-22T00:52:55.463Z,71.20
2023-01-22T00:57:57.798Z,71.90
2023-01-22T01:03:19.891Z,72.00
2023-01-22T01:08:23.331Z,71.70
2023-01-22T01:13:26.535Z,70.90
2023-01-22T01:18:29.559Z,70.90
2023-01-22T01:23:31.823Z,70.90
2023-01-22T01:28:36.534Z,70.60
2023-01-22T01:33:39.545Z,70.60
2023-01-22T01:38:42.006Z,70.50
2023-01-22T01:43:44.368Z,71.00
2023-01-22T01:48:48.778Z,70.90
2023-01-22T01:53:51.926Z,70.60
2023-01-22T01:58:59.198Z,71.10
2023-01-22T02:04:01.685Z,70.40
2023-01-22T02:09:04.073Z,70.60
2023-01-22T02:14:11.951Z,70.30
2023-01-22T02:19:14.371Z,70.40
2023-01-22T02:24:17.619Z,70.40
2023-01-22T02:29:19.963Z,70.60
2023-01-22T02:34:24.710Z,70.50
2023-01-22T02:39:27.920Z,70.60
2023-01-22T02:44:30.530Z,70.50
2023-01-22T02:49:33.132Z,70.60
2023-01-22T02:54:36.805Z,70.90
2023-01-22T02:59:39.085Z,71.10
2023-01-22T03:04:46.768Z,70.70
2023-01-22T03:09:49.047Z,70.90
2023-01-22T03:15:11.246Z,70.90
2023-01-22T03:20:33.345Z,70.60
2023-01-22T03:25:36.491Z,70.50
2023-01-22T03:30:39.100Z,71.00
2023-01-22T03:35:43.262Z,70.80
2023-01-22T03:40:50.818Z,70.60
2023-01-22T03:45:54.582Z,70.50
2023-01-22T03:51:04.229Z,70.40
2023-01-22T03:56:11.572Z,70.50
2023-01-22T04:01:20.563Z,70.90
2023-01-22T04:06:24.093Z,70.80
2023-01-22T04:11:26.483Z,70.20
2023-01-22T04:16:29.312Z,69.60
2023-01-22T04:21:40.264Z,69.30
2023-01-22T04:26:45.685Z,69.50
2023-01-22T04:31:50.670Z,69.70
2023-01-22T04:37:03.380Z,69.90
2023-01-22T04:42:11.217Z,69.10
2023-01-22T04:47:13.506Z,69.40
2023-01-22T04:52:17.340Z,69.10
2023-01-22T04:57:19.863Z,70.00
2023-01-22T05:02:24.130Z,70.50
2023-01-22T05:07:27.907Z,69.80
2023-01-22T05:12:30.282Z,69.50
2023-01-22T05:17:32.741Z,68.60
2023-01-22T05:22:35.074Z,69.60
2023-01-22T05:27:38.679Z,69.90
2023-01-22T05:32:47.996Z,69.40
2023-01-22T05:37:51.804Z,70.40
2023-01-22T05:42:55.688Z,69.40
2023-01-22T05:47:58.413Z,68.60
2023-01-22T05:53:10.912Z,69.30
2023-01-22T05:58:13.570Z,67.80
2023-01-22T06:03:19.060Z,68.00
2023-01-22T06:08:26.935Z,68.00
2023-01-22T06:13:30.725Z,68.60
2023-01-22T06:18:39.178Z,68.80
2023-01-22T06:23:41.499Z,69.10
2023-01-22T06:28:44.670Z,69.40
2023-01-22T06:33:46.996Z,70.60
2023-01-22T06:38:51.567Z,70.70
2023-01-22T06:44:07.804Z,70.10
2023-01-22T06:49:11.144Z,70.00
2023-01-22T06:54:15.226Z,69.30
2023-01-22T06:59:18.592Z,70.20
2023-01-22T07:04:20.850Z,69.60
2023-01-22T07:09:23.202Z,70.40
2023-01-22T07:14:36.616Z,70.10
2023-01-22T07:19:39.520Z,71.20
2023-01-22T07:24:42.049Z,70.80
2023-01-22T07:29:44.301Z,70.90
2023-01-22T07:34:46.504Z,71.10
2023-01-22T07:39:48.750Z,71.70
2023-01-22T07:44:50.959Z,71.70
2023-01-22T07:49:53.194Z,72.80
2023-01-22T07:54:55.487Z,71.50
2023-01-22T07:59:57.644Z,71.40
2023-01-22T08:04:59.850Z,73.10
2023-01-22T08:10:02.215Z,70.10
2023-01-22T08:15:05.139Z,70.90
2023-01-22T08:20:08.500Z,72.20
2023-01-22T08:25:10.918Z,72.50
2023-01-22T08:30:13.511Z,70.80
2023-01-22T08:35:15.929Z,70.90
2023-01-22T08:40:18.693Z,71.10
2023-01-22T08:45:21.670Z,72.20
2023-01-22T08:50:23.958Z,72.90
2023-01-22T08:55:27.905Z,75.30
2023-01-22T09:00:30.248Z,73.90
2023-01-22T09:05:32.451Z,71.60
2023-01-22T09:10:35.048Z,69.30
2023-01-22T09:15:37.651Z,69.20
2023-01-22T09:20:39.887Z,68.40
2023-01-22T09:25:42.393Z,69.30
2023-01-22T09:30:44.823Z,70.00
2023-01-22T09:35:47.159Z,70.70
2023-01-22T09:40:54.926Z,71.30
2023-01-22T09:46:00.805Z,72.40
2023-01-22T09:51:04.676Z,72.60
2023-01-22T09:56:13.793Z,73.30
2023-01-22T10:01:18.635Z,73.90
2023-01-22T10:06:23.037Z,73.60
2023-01-22T10:11:25.896Z,73.30
2023-01-22T10:16:28.747Z,74.20
2023-01-22T10:21:41.930Z,74.60
2023-01-22T10:32:00.229Z,75.40
2023-01-22T10:37:13.565Z,75.90
2023-01-22T10:47:28.100Z,76.00
2023-01-22T10:52:53.839Z,75.80
2023-01-22T10:58:03.117Z,76.30
2023-01-22T11:03:23.585Z,75.80
2023-01-22T11:08:30.995Z,76.10
2023-01-22T11:24:04.882Z,75.50
2023-01-22T11:29:35.591Z,75.70
2023-01-22T11:50:31.067Z,77.30
2023-01-22T12:01:12.733Z,78.10
2023-01-22T12:12:01.459Z,79.00
2023-01-22T12:22:46.924Z,79.70
2023-01-22T12:33:03.147Z,80.60
2023-01-22T12:38:19.781Z,81.30
2023-01-22T12:43:32.995Z,81.20
2023-01-22T12:53:45.974Z,81.10
2023-01-22T12:58:56.793Z,81.30
2023-01-22T13:04:05.310Z,81.30
2023-01-22T13:09:25.401Z,82.10
2023-01-22T13:14:31.542Z,82.10
2023-01-22T13:19:42.376Z,82.90
2023-01-22T13:24:55.427Z,82.90
2023-01-22T13:30:20.894Z,82.40
2023-01-22T13:35:23.320Z,82.50
2023-01-22T13:40:30.272Z,82.40
2023-01-22T13:45:34.187Z,82.60
2023-01-22T13:50:37.135Z,82.80
2023-01-22T13:55:39.403Z,82.40
2023-01-22T14:00:52.593Z,82.10
2023-01-22T14:06:13.149Z,82.00
2023-01-22T14:11:16.056Z,81.70
2023-01-22T14:16:18.763Z,82.00
2023-01-22T14:21:21.008Z,82.50
2023-01-22T14:26:23.263Z,82.80
2023-01-22T14:31:25.700Z,81.90
2023-01-22T14:48:54.475Z,81.20
2023-01-22T14:53:59.081Z,81.30
2023-01-22T14:59:01.439Z,81.30
2023-01-22T15:04:05.263Z,81.50
2023-01-22T15:09:07.455Z,82.50
2023-01-22T15:14:09.813Z,82.90
2023-01-22T15:19:12.023Z,83.00
2023-01-22T15:24:14.296Z,82.80
2023-01-22T15:29:16.556Z,82.70
2023-01-22T15:34:19.507Z,82.80
2023-01-22T15:39:21.736Z,82.80
2023-01-22T15:44:23.992Z,83.10
2023-01-22T15:49:26.499Z,83.40
2023-01-22T15:54:29.730Z,84.00
2023-01-22T15:59:33.577Z,84.50
2023-01-22T16:04:36.179Z,85.00
2023-01-22T16:09:38.969Z,85.20
2023-01-22T16:14:41.594Z,84.80
2023-01-22T16:19:44.201Z,84.90
2023-01-22T16:24:46.519Z,85.50
2023-01-22T16:29:48.764Z,85.70
2023-01-22T16:34:51.243Z,86.00
2023-01-22T16:39:53.652Z,85.90
2023-01-22T16:44:55.887Z,85.80
2023-01-22T16:49:58.166Z,86.10
2023-01-22T16:55:00.407Z,85.90
2023-01-22T17:00:03.286Z,85.90
2023-01-22T17:05:08.761Z,86.30
2023-01-22T17:10:11.557Z,86.50
2023-01-22T17:15:13.786Z,86.50
2023-01-22T17:20:16.179Z,86.20
2023-01-22T17:25:18.638Z,86.20
2023-01-22T17:30:21.946Z,85.80
2023-01-22T17:35:24.172Z,86.00
2023-01-22T17:40:26.731Z,85.80
2023-01-22T17:45:29.347Z,85.90
2023-01-22T17:50:31.687Z,86.00
2023-01-22T17:55:34.100Z,86.20
2023-01-22T18:00:37.898Z,86.70
2023-01-22T18:05:40.174Z,86.70
2023-01-22T18:10:42.409Z,87.10
2023-01-22T18:15:46.913Z,87.10
2023-01-22T18:20:49.344Z,87.50
2023-01-22T18:25:56.433Z,87.70
2023-01-22T18:31:08.899Z,87.60
2023-01-22T18:36:14.710Z,88.10
2023-01-22T18:41:21.188Z,88.40
2023-01-22T18:46:25.302Z,88.60
2023-01-22T18:51:28.726Z,88.70
2023-01-22T18:56:31.746Z,88.20
2023-01-22T19:01:38.158Z,88.00
2023-01-22T19:06:44.318Z,88.10
2023-01-22T19:11:48.593Z,87.90
2023-01-22T19:16:53.466Z,88.30
2023-01-22T19:21:56.403Z,88.80
2023-01-22T19:26:59.044Z,88.60
2023-01-22T19:32:01.541Z,88.10
2023-01-22T19:37:06.564Z,87.80
2023-01-22T19:42:08.781Z,87.80
2023-01-22T19:47:11.339Z,87.40
2023-01-22T19:52:13.609Z,87.80
2023-01-22T19:57:16.106Z,87.80
2023-01-22T20:02:20.915Z,88.00
2023-01-22T20:07:25.231Z,88.20
2023-01-22T20:12:27.545Z,88.40
2023-01-22T20:17:29.753Z,87.70
2023-01-22T20:22:32.443Z,87.60
2023-01-22T20:27:35.243Z,87.50
2023-01-22T20:32:37.480Z,87.60
2023-01-22T20:37:39.690Z,88.20
2023-01-22T20:42:41.930Z,88.60
2023-01-22T20:47:45.062Z,88.70
2023-01-22T20:52:47.276Z,88.70
2023-01-22T20:57:49.539Z,88.30
2023-01-22T21:02:52.026Z,87.90
2023-01-22T21:07:54.324Z,87.60
2023-01-22T21:12:56.559Z,86.90
2023-01-22T21:17:59.283Z,86.80
2023-01-22T21:23:02.455Z,86.50
2023-01-22T21:28:05.052Z,86.40
2023-01-22T21:33:07.410Z,86.50
2023-01-22T21:38:09.835Z,86.30
2023-01-22T21:43:35.361Z,86.40
2023-01-22T21:48:37.656Z,86.10
2023-01-22T21:53:39.939Z,86.00
2023-01-22T21:58:45.363Z,85.50
2023-01-22T22:03:47.675Z,85.50
2023-01-22T22:08:49.889Z,85.70
2023-01-22T22:13:52.894Z,85.70
2023-01-22T22:18:56.648Z,85.20
2023-01-22T22:23:59.002Z,84.70
2023-01-22T22:29:01.481Z,84.40
2023-01-22T22:34:04.042Z,84.50
2023-01-22T22:39:06.713Z,84.50
2023-01-22T22:44:10.888Z,84.50
2023-01-22T22:49:14.025Z,84.00
2023-01-22T22:54:18.598Z,84.40
2023-01-22T22:59:21.090Z,84.40
2023-01-22T23:04:23.612Z,84.00
2023-01-22T23:09:25.969Z,84.60
2023-01-22T23:14:28.211Z,84.10
2023-01-22T23:19:30.602Z,83.40
2023-01-22T23:24:32.900Z,83.00
2023-01-22T23:29:35.142Z,83.40
2023-01-22T23:34:37.683Z,84.60
2023-01-22T23:39:40.059Z,84.40
2023-01-22T23:44:42.349Z,84.70
2023-01-22T23:49:44.551Z,84.40
2023-01-22T23:54:46.839Z,84.40
2023-01-22T23:59:50.044Z,83.40
